Time;durP1;ratioP1;P1;durP2;ratioP2;P2;SDS_P1;SDS_P2;PMS_P1;PMS_P2;Temp;Humidity;BMP_temperature;BMP_pressure;BME280_temperature;BME280_humidity;BME280_pressure;Samples;Min_cycle;Max_cycle;Signal;HPM_P1;HPM_P2
2024/01/09 00:00:43;;;;;;;18.20;10.10;;;-4.40;99.00;;;;;;5046435;28;20247;-76
2024/01/09 00:03:08;;;;;;;22.95;11.52;;;-4.40;99.00;;;;;;5064892;28;20039;-73
2024/01/09 00:05:37;;;;;;;18.98;10.50;;;-4.40;98.80;;;;;;5064061;28;20048;-73
2024/01/09 00:08:03;;;;;;;17.92;10.25;;;-4.40;98.70;;;;;;5047132;28;20036;-74
2024/01/09 00:10:28;;;;;;;21.20;12.15;;;-4.50;98.70;;;;;;5063868;28;20024;-75
2024/01/09 00:12:56;;;;;;;18.15;10.63;;;-4.50;98.90;;;;;;5062126;28;20076;-73
2024/01/09 00:15:22;;;;;;;23.67;12.38;;;-4.50;98.70;;;;;;5044283;28;20045;-74
2024/01/09 00:17:47;;;;;;;19.23;11.30;;;-4.50;98.60;;;;;;5043866;28;20261;-75
2024/01/09 00:20:14;;;;;;;21.77;11.43;;;-4.50;98.70;;;;;;5044196;28;20131;-73
2024/01/09 00:22:52;;;;;;;18.58;10.70;;;-4.50;98.60;;;;;;5043888;28;20041;-73
2024/01/09 00:25:20;;;;;;;18.85;11.20;;;-4.50;98.60;;;;;;5044080;28;20040;-74
2024/01/09 00:27:55;;;;;;;19.02;10.77;;;-4.40;98.70;;;;;;5043534;28;20259;-75
2024/01/09 00:30:23;;;;;;;18.48;10.75;;;-4.40;98.40;;;;;;5056209;28;20314;-75
2024/01/09 00:32:52;;;;;;;19.35;11.65;;;-4.40;98.50;;;;;;5062397;28;20021;-74
2024/01/09 00:35:19;;;;;;;20.92;11.00;;;-4.40;98.40;;;;;;5046380;28;20039;-74
2024/01/09 00:37:44;;;;;;;20.27;11.18;;;-4.40;98.20;;;;;;5064233;28;20028;-74
2024/01/09 00:40:10;;;;;;;21.13;11.18;;;-4.40;98.20;;;;;;5046434;28;20168;-72
2024/01/09 00:42:39;;;;;;;21.70;11.90;;;-4.40;98.30;;;;;;5063568;28;20029;-74
2024/01/09 00:45:07;;;;;;;18.65;10.98;;;-4.40;98.10;;;;;;5064529;28;20366;-75
2024/01/09 00:47:33;;;;;;;19.63;10.40;;;-4.30;98.00;;;;;;5063714;28;20048;-73
2024/01/09 00:49:59;;;;;;;19.67;10.68;;;-4.40;97.90;;;;;;5058548;28;20044;-73
2024/01/09 00:52:28;;;;;;;20.83;11.00;;;-4.30;97.90;;;;;;5063987;28;20024;-74
2024/01/09 00:55:03;;;;;;;19.23;10.85;;;-4.50;97.90;;;;;;5063874;28;20307;-74
2024/01/09 00:57:36;;;;;;;18.48;11.25;;;-4.50;98.00;;;;;;5063062;28;20068;-73
2024/01/09 01:00:02;;;;;;;21.08;11.10;;;-4.50;98.30;;;;;;5045555;28;20036;-74
2024/01/09 01:02:31;;;;;;;21.80;11.60;;;-4.60;98.20;;;;;;5063009;28;20091;-74
2024/01/09 01:05:05;;;;;;;18.83;11.43;;;-4.60;98.20;;;;;;5063520;28;20026;-75
2024/01/09 01:07:31;;;;;;;21.10;10.73;;;-4.70;98.30;;;;;;5053492;28;20033;-74
2024/01/09 01:09:57;;;;;;;20.92;11.25;;;-4.60;98.30;;;;;;5042975;28;20098;-74
2024/01/09 01:12:22;;;;;;;19.65;10.45;;;-4.60;98.10;;;;;;5043347;28;20029;-73
2024/01/09 01:14:48;;;;;;;19.65;11.15;;;-4.60;97.80;;;;;;5042281;28;20350;-74
2024/01/09 01:17:17;;;;;;;22.48;11.95;;;-4.50;97.80;;;;;;5042495;28;20299;-75
2024/01/09 01:19:45;;;;;;;21.38;10.52;;;-4.60;97.90;;;;;;5042926;28;20080;-75
2024/01/09 01:22:17;;;;;;;19.58;10.45;;;-4.60;98.00;;;;;;5043244;28;20025;-74
2024/01/09 01:24:45;;;;;;;21.80;11.25;;;-4.60;97.90;;;;;;5045972;28;20025;-76
2024/01/09 01:27:11;;;;;;;20.48;10.57;;;-4.70;97.80;;;;;;5042928;28;20064;-74
2024/01/09 01:29:37;;;;;;;20.02;11.20;;;-4.80;98.00;;;;;;5048481;28;20033;-74
2024/01/09 01:32:10;;;;;;;19.83;10.98;;;-4.80;98.20;;;;;;5045502;28;20319;-75
2024/01/09 01:34:39;;;;;;;20.50;11.23;;;-4.70;98.10;;;;;;5054564;28;20037;-73
2024/01/09 01:37:05;;;;;;;22.83;11.95;;;-4.80;98.20;;;;;;5053712;28;20029;-74
2024/01/09 01:39:31;;;;;;;19.17;10.95;;;-4.70;98.00;;;;;;5062245;28;20232;-73
2024/01/09 01:41:57;;;;;;;21.08;11.15;;;-4.70;98.20;;;;;;5062734;28;20063;-73
2024/01/09 01:44:22;;;;;;;22.17;11.63;;;-4.70;98.10;;;;;;5062407;28;20044;-75
2024/01/09 01:46:49;;;;;;;20.08;11.38;;;-4.60;98.00;;;;;;5061893;28;20306;-74
2024/01/09 01:49:17;;;;;;;19.90;11.20;;;-4.70;97.90;;;;;;5063093;28;20266;-73
2024/01/09 01:51:45;;;;;;;21.58;12.48;;;-4.70;97.60;;;;;;5062217;28;20063;-74
2024/01/09 01:54:14;;;;;;;22.77;11.23;;;-4.80;97.90;;;;;;5057945;28;20231;-75
2024/01/09 01:56:41;;;;;;;21.20;11.38;;;-4.80;97.70;;;;;;5042440;28;20116;-73
2024/01/09 01:59:10;;;;;;;20.45;11.43;;;-4.80;98.00;;;;;;5042894;28;20327;-74
2024/01/09 02:01:37;;;;;;;19.88;10.80;;;-4.80;97.90;;;;;;5042513;28;20026;-74
2024/01/09 02:04:03;;;;;;;20.58;11.02;;;-4.80;97.90;;;;;;5042289;28;20045;-74
2024/01/09 02:06:30;;;;;;;19.45;10.85;;;-4.70;97.80;;;;;;5041789;28;20316;-75
2024/01/09 02:08:56;;;;;;;18.92;11.10;;;-4.80;97.70;;;;;;5042794;28;20040;-73
2024/01/09 02:11:25;;;;;;;24.77;11.57;;;-4.80;97.60;;;;;;5043372;28;20034;-74
2024/01/09 02:13:51;;;;;;;20.20;11.25;;;-4.70;97.60;;;;;;5044470;28;20052;-74
2024/01/09 02:16:16;;;;;;;21.45;11.23;;;-4.80;97.40;;;;;;5062338;28;20070;-74
2024/01/09 02:18:42;;;;;;;20.33;12.00;;;-4.70;97.50;;;;;;5061880;28;20051;-74
2024/01/09 02:21:11;;;;;;;22.30;11.23;;;-4.80;97.50;;;;;;5062252;28;20126;-74
2024/01/09 02:23:36;;;;;;;18.73;11.05;;;-4.70;97.40;;;;;;5061418;28;20335;-75
2024/01/09 02:26:03;;;;;;;20.80;11.32;;;-4.70;97.40;;;;;;5044602;28;20048;-73
2024/01/09 02:28:36;;;;;;;20.02;11.05;;;-4.80;97.30;;;;;;5057348;28;20116;-73
2024/01/09 02:31:02;;;;;;;20.35;11.07;;;-4.90;97.40;;;;;;5062181;28;20085;-75
2024/01/09 02:33:28;;;;;;;20.83;11.75;;;-4.90;97.60;;;;;;5066824;28;20063;-73
2024/01/09 02:35:54;;;;;;;21.55;11.60;;;-4.90;97.60;;;;;;5043981;28;20029;-73
2024/01/09 02:38:24;;;;;;;21.98;11.55;;;-4.90;97.50;;;;;;5062062;28;20150;-75
2024/01/09 02:40:49;;;;;;;20.08;10.73;;;-4.80;97.40;;;;;;5061580;28;20036;-72
2024/01/09 02:43:15;;;;;;;21.40;11.43;;;-4.80;97.50;;;;;;5061873;28;20342;-76
2024/01/09 02:45:41;;;;;;;19.10;10.77;;;-4.80;97.40;;;;;;5041074;28;20021;-74
2024/01/09 02:48:06;;;;;;;22.50;11.70;;;-4.80;97.50;;;;;;5061457;28;20044;-75
2024/01/09 02:50:32;;;;;;;23.13;11.80;;;-4.90;97.50;;;;;;5061516;28;20029;-73
2024/01/09 02:52:58;;;;;;;20.63;11.43;;;-4.90;97.70;;;;;;5061610;28;20100;-75
2024/01/09 02:55:23;;;;;;;21.98;11.90;;;-4.90;97.80;;;;;;5061421;28;20124;-73
2024/01/09 02:57:52;;;;;;;19.88;11.57;;;-4.90;97.60;;;;;;5061215;28;20314;-76
2024/01/09 03:00:18;;;;;;;21.88;11.55;;;-4.90;97.50;;;;;;5061514;28;20303;-71
2024/01/09 03:02:44;;;;;;;21.05;11.20;;;-4.90;97.50;;;;;;5055633;28;20082;-73
2024/01/09 03:05:09;;;;;;;19.90;11.15;;;-4.90;97.50;;;;;;5060713;28;20025;-75
2024/01/09 03:07:35;;;;;;;20.10;11.10;;;-4.90;97.40;;;;;;5061174;28;20338;-72
2024/01/09 03:10:02;;;;;;;18.75;10.90;;;-4.90;97.50;;;;;;5061460;28;20028;-73
2024/01/09 03:12:28;;;;;;;20.07;11.33;;;-4.90;97.30;;;;;;5060720;28;20021;-75
2024/01/09 03:14:55;;;;;;;19.83;10.80;;;-4.90;97.30;;;;;;5061610;28;20649;-73
2024/01/09 03:17:26;;;;;;;21.73;11.07;;;-4.90;97.30;;;;;;5061895;28;20077;-73
2024/01/09 03:19:52;;;;;;;21.42;11.50;;;-4.90;97.00;;;;;;5055225;28;20021;-75
2024/01/09 03:22:17;;;;;;;20.80;11.55;;;-4.90;97.10;;;;;;5061291;28;20040;-72
2024/01/09 03:24:43;;;;;;;19.88;10.68;;;-4.90;96.90;;;;;;5060656;28;20037;-74
2024/01/09 03:27:09;;;;;;;20.58;10.75;;;-4.90;97.00;;;;;;5061424;28;20021;-73
2024/01/09 03:29:35;;;;;;;20.48;10.20;;;-5.00;97.10;;;;;;5055063;28;20068;-73
2024/01/09 03:32:00;;;;;;;19.08;10.90;;;-5.00;97.00;;;;;;5023886;28;20026;-74
2024/01/09 03:34:26;;;;;;;21.58;10.90;;;-4.90;96.90;;;;;;5043234;28;20212;-73
2024/01/09 03:36:52;;;;;;;19.90;11.00;;;-4.90;96.80;;;;;;5042165;28;20056;-75
2024/01/09 03:39:17;;;;;;;21.27;11.60;;;-5.00;96.90;;;;;;5041606;28;20029;-73
2024/01/09 03:41:43;;;;;;;19.13;10.85;;;-4.90;96.80;;;;;;5043633;28;20025;-74
2024/01/09 03:44:10;;;;;;;20.35;11.32;;;-4.90;96.90;;;;;;5044988;28;20029;-74
2024/01/09 03:46:36;;;;;;;20.42;10.50;;;-4.90;96.70;;;;;;5026993;28;20212;-74
2024/01/09 03:49:02;;;;;;;24.80;11.68;;;-4.90;96.80;;;;;;5043522;28;20303;-75
2024/01/09 03:51:27;;;;;;;18.67;9.80;;;-4.90;97.00;;;;;;5028335;28;20053;-74
2024/01/09 03:53:53;;;;;;;19.70;10.13;;;-4.90;96.80;;;;;;5064667;28;20033;-73
2024/01/09 03:56:18;;;;;;;19.17;10.80;;;-4.90;96.90;;;;;;5064800;28;20021;-72
2024/01/09 03:58:44;;;;;;;21.83;11.00;;;-4.90;96.90;;;;;;5064226;28;20155;-77
2024/01/09 04:01:10;;;;;;;20.17;10.65;;;-4.90;96.70;;;;;;5063401;28;20039;-74
2024/01/09 04:03:40;;;;;;;19.08;10.05;;;-4.80;96.50;;;;;;5064331;28;20025;-75
2024/01/09 04:06:06;;;;;;;18.27;10.48;;;-4.80;96.60;;;;;;5064708;28;20032;-74
2024/01/09 04:08:31;;;;;;;20.75;10.85;;;-4.80;96.60;;;;;;5059978;28;20135;-74
2024/01/09 04:10:57;;;;;;;22.15;11.13;;;-4.90;96.60;;;;;;5062421;28;20017;-72
2024/01/09 04:13:28;;;;;;;19.67;9.85;;;-4.90;96.60;;;;;;5064335;28;20101;-73
2024/01/09 04:15:54;;;;;;;23.77;10.68;;;-4.90;96.70;;;;;;5046536;28;20055;-73
2024/01/09 04:18:26;;;;;;;23.38;10.55;;;-4.90;96.40;;;;;;5064374;28;20099;-73
2024/01/09 04:20:51;;;;;;;21.75;10.82;;;-5.00;96.30;;;;;;5046102;28;20241;-74
2024/01/09 04:23:17;;;;;;;20.65;10.65;;;-5.00;96.40;;;;;;5064516;28;20033;-73
2024/01/09 04:25:43;;;;;;;18.55;9.85;;;-5.00;96.50;;;;;;5063594;28;20017;-72
2024/01/09 04:28:08;;;;;;;20.00;10.90;;;-5.10;96.50;;;;;;5052081;28;20032;-73
2024/01/09 04:30:37;;;;;;;18.33;9.75;;;-5.10;96.80;;;;;;5058085;28;20278;-72
2024/01/09 04:33:03;;;;;;;19.98;10.52;;;-5.20;96.70;;;;;;5064382;28;20040;-74
2024/01/09 04:35:32;;;;;;;21.95;10.77;;;-5.10;96.70;;;;;;5063758;28;20033;-73
2024/01/09 04:37:57;;;;;;;19.42;10.07;;;-5.10;96.80;;;;;;5063979;28;20037;-74
2024/01/09 04:40:23;;;;;;;18.70;10.65;;;-5.10;96.60;;;;;;5064327;28;20049;-75
2024/01/09 04:42:49;;;;;;;19.10;10.27;;;-5.10;96.60;;;;;;5063653;28;20036;-72
2024/01/09 04:45:14;;;;;;;19.30;10.20;;;-5.10;96.50;;;;;;5057905;28;20040;-72
2024/01/09 04:47:40;;;;;;;21.90;10.70;;;-5.00;96.50;;;;;;5045016;28;20048;-72
2024/01/09 04:50:07;;;;;;;15.82;9.50;;;-5.00;96.10;;;;;;5063859;28;20029;-73
2024/01/09 04:52:34;;;;;;;18.30;9.95;;;-4.90;95.90;;;;;;5061719;28;20040;-75
2024/01/09 04:55:00;;;;;;;20.77;9.73;;;-4.90;95.90;;;;;;5063226;28;20021;-74
2024/01/09 04:57:25;;;;;;;17.95;9.90;;;-4.90;95.80;;;;;;5045686;28;20333;-73
2024/01/09 04:59:57;;;;;;;16.83;9.40;;;-4.90;95.80;;;;;;5062884;28;20333;-72
2024/01/09 05:02:23;;;;;;;18.15;10.18;;;-4.90;95.60;;;;;;5049120;28;20189;-73
2024/01/09 05:04:52;;;;;;;18.30;9.70;;;-4.90;95.50;;;;;;5043105;28;20076;-72
2024/01/09 05:07:17;;;;;;;20.05;10.48;;;-4.90;95.50;;;;;;5043410;28;20100;-73
2024/01/09 05:09:43;;;;;;;18.38;9.80;;;-4.90;95.60;;;;;;5042673;28;20017;-75
2024/01/09 05:12:09;;;;;;;18.30;9.45;;;-4.90;95.60;;;;;;5043455;28;20085;-74
2024/01/09 05:14:34;;;;;;;17.38;9.20;;;-5.00;95.60;;;;;;5042446;28;20033;-75
2024/01/09 05:17:03;;;;;;;18.23;9.70;;;-4.90;95.70;;;;;;5043590;28;20067;-73
2024/01/09 05:19:31;;;;;;;18.77;10.25;;;-5.00;95.60;;;;;;5050961;28;20315;-73
2024/01/09 05:21:57;;;;;;;18.30;9.57;;;-5.00;95.70;;;;;;5063482;28;20322;-73
2024/01/09 05:24:22;;;;;;;17.45;9.02;;;-4.90;95.60;;;;;;5045569;28;20024;-72
2024/01/09 05:26:48;;;;;;;20.98;9.63;;;-4.90;95.50;;;;;;5044676;28;20274;-74
2024/01/09 05:29:14;;;;;;;20.63;9.27;;;-5.00;95.80;;;;;;5059710;28;20059;-73
2024/01/09 05:31:45;;;;;;;16.90;9.10;;;-5.00;95.80;;;;;;5042559;28;20018;-74
2024/01/09 05:34:11;;;;;;;18.98;9.80;;;-5.00;95.70;;;;;;5043342;28;20033;-75
2024/01/09 05:36:36;;;;;;;20.65;9.55;;;-5.00;95.80;;;;;;5044314;28;20090;-75
2024/01/09 05:39:02;;;;;;;20.00;10.18;;;-5.00;95.70;;;;;;5063079;28;20025;-76
2024/01/09 05:41:28;;;;;;;17.15;9.38;;;-5.00;95.60;;;;;;5063066;28;20024;-78
2024/01/09 05:43:54;;;;;;;19.13;9.30;;;-5.00;95.60;;;;;;5062731;28;20307;-77
2024/01/09 05:46:22;;;;;;;18.60;9.57;;;-5.00;95.50;;;;;;5045358;28;20323;-74
2024/01/09 05:48:48;;;;;;;18.65;9.75;;;-5.00;95.50;;;;;;5044255;28;20056;-74
2024/01/09 05:51:14;;;;;;;18.02;9.85;;;-5.00;95.50;;;;;;5039783;28;20071;-74
2024/01/09 05:53:40;;;;;;;20.13;10.05;;;-5.00;95.40;;;;;;5061436;28;20025;-75
2024/01/09 05:56:07;;;;;;;19.45;9.65;;;-5.00;95.20;;;;;;5062171;28;20247;-74
2024/01/09 05:58:33;;;;;;;20.23;10.65;;;-5.00;95.50;;;;;;5044218;28;20067;-75
2024/01/09 06:00:59;;;;;;;22.00;10.40;;;-5.00;95.30;;;;;;5044596;28;20330;-75
2024/01/09 06:03:26;;;;;;;20.00;9.85;;;-5.00;95.40;;;;;;5044267;28;20036;-74
2024/01/09 06:05:52;;;;;;;16.80;9.35;;;-5.10;95.50;;;;;;5043921;28;20056;-72
2024/01/09 06:08:17;;;;;;;18.00;9.32;;;-5.10;95.80;;;;;;5042433;28;20082;-77
2024/01/09 06:10:43;;;;;;;18.70;9.10;;;-5.00;95.70;;;;;;5062205;28;20033;-76
2024/01/09 06:13:09;;;;;;;21.15;9.88;;;-5.00;95.40;;;;;;5062574;28;20058;-75
2024/01/09 06:15:35;;;;;;;18.35;9.38;;;-5.00;95.50;;;;;;5044486;28;20024;-77
2024/01/09 06:18:01;;;;;;;19.33;10.35;;;-4.90;95.40;;;;;;5028740;28;20131;-78
2024/01/09 06:20:40;;;;;;;18.10;9.20;;;-4.90;95.20;;;;;;5044318;28;20027;-77
2024/01/09 06:23:05;;;;;;;17.08;9.23;;;-4.80;95.10;;;;;;5063258;28;20036;-76
2024/01/09 06:25:31;;;;;;;20.25;9.75;;;-4.80;95.30;;;;;;5062201;28;20223;-77
2024/01/09 06:27:57;;;;;;;18.70;9.25;;;-4.90;95.50;;;;;;5047991;28;20100;-76
2024/01/09 06:30:23;;;;;;;19.88;9.85;;;-4.90;95.30;;;;;;5054397;28;20089;-75
2024/01/09 06:32:48;;;;;;;20.52;9.60;;;-5.00;95.30;;;;;;5062497;28;20052;-75
2024/01/09 06:35:14;;;;;;;18.83;9.50;;;-5.00;95.40;;;;;;5045902;28;20033;-76
2024/01/09 06:37:43;;;;;;;19.00;9.90;;;-5.00;95.50;;;;;;5062993;28;20056;-76
2024/01/09 06:40:08;;;;;;;17.95;9.52;;;-5.00;95.50;;;;;;5046086;28;20045;-75
2024/01/09 06:42:34;;;;;;;19.30;9.52;;;-5.00;95.60;;;;;;5060542;28;22163;-77
2024/01/09 06:45:00;;;;;;;18.98;9.63;;;-5.00;95.40;;;;;;5061050;28;20036;-76
2024/01/09 06:47:26;;;;;;;19.52;10.02;;;-5.10;95.40;;;;;;5029381;28;20139;-76
2024/01/09 06:49:51;;;;;;;22.65;10.90;;;-5.10;95.60;;;;;;5063145;28;20037;-74
2024/01/09 06:52:17;;;;;;;20.77;9.60;;;-5.10;95.70;;;;;;5045994;28;20029;-74
2024/01/09 06:54:42;;;;;;;19.02;9.48;;;-5.20;95.80;;;;;;5063047;28;20048;-76
2024/01/09 06:57:08;;;;;;;18.05;9.68;;;-5.10;95.90;;;;;;5050229;28;20021;-75
2024/01/09 06:59:34;;;;;;;18.50;9.90;;;-5.10;96.10;;;;;;5046041;28;20028;-75
2024/01/09 07:02:03;;;;;;;21.83;10.60;;;-5.10;95.80;;;;;;5042438;28;20114;-76
2024/01/09 07:04:31;;;;;;;22.50;10.70;;;-5.10;96.00;;;;;;5040591;28;20029;-77
2024/01/09 07:07:00;;;;;;;17.90;9.77;;;-5.10;96.00;;;;;;5040950;28;20674;-75
2024/01/09 07:09:33;;;;;;;19.13;9.93;;;-5.10;96.10;;;;;;5007955;28;20220;-74
2024/01/09 07:12:09;;;;;;;20.88;9.68;;;-5.10;96.00;;;;;;5008529;28;20220;-75
2024/01/09 07:14:38;;;;;;;18.20;9.90;;;-5.10;96.10;;;;;;5028918;28;20037;-76
2024/01/09 07:17:04;;;;;;;25.10;10.82;;;-5.10;95.80;;;;;;5051268;28;20030;-76
2024/01/09 07:19:32;;;;;;;20.63;9.90;;;-5.10;95.90;;;;;;5046184;28;20034;-74
2024/01/09 07:22:01;;;;;;;20.85;9.50;;;-5.10;95.70;;;;;;5046871;28;20025;-76
2024/01/09 07:24:28;;;;;;;22.67;10.15;;;-5.00;95.50;;;;;;5045999;28;20032;-77
2024/01/09 07:26:53;;;;;;;17.85;9.73;;;-5.00;95.50;;;;;;5033229;28;20021;-77
2024/01/09 07:29:22;;;;;;;22.13;10.73;;;-5.00;95.40;;;;;;5054777;28;20032;-76
2024/01/09 07:31:47;;;;;;;21.35;9.82;;;-5.00;95.50;;;;;;5045396;28;20518;-74
2024/01/09 07:34:13;;;;;;;18.40;8.85;;;-4.90;95.20;;;;;;5049864;28;20266;-75
2024/01/09 07:36:39;;;;;;;21.83;9.98;;;-5.00;95.40;;;;;;5062978;28;20036;-74
2024/01/09 07:39:07;;;;;;;18.45;10.05;;;-5.00;95.60;;;;;;5048234;28;20308;-75
2024/01/09 07:41:32;;;;;;;22.23;10.33;;;-4.90;95.20;;;;;;5065550;28;20056;-75
2024/01/09 07:43:58;;;;;;;17.88;9.00;;;-4.90;95.20;;;;;;5057762;28;20029;-75
2024/01/09 07:46:24;;;;;;;21.17;10.02;;;-4.80;95.20;;;;;;5046316;28;20101;-75
2024/01/09 07:48:49;;;;;;;18.38;9.25;;;-4.80;95.40;;;;;;5010909;28;20129;-77
2024/01/09 07:51:15;;;;;;;19.52;9.75;;;-4.80;95.10;;;;;;5032379;28;20073;-74
2024/01/09 07:53:41;;;;;;;20.08;10.27;;;-4.70;95.10;;;;;;5043681;28;20033;-75
2024/01/09 07:56:19;;;;;;;19.10;9.82;;;-4.70;94.80;;;;;;5044060;28;20033;-74
2024/01/09 07:58:45;;;;;;;20.58;9.63;;;-4.60;94.70;;;;;;5026479;28;20025;-75
2024/01/09 08:01:12;;;;;;;20.83;10.82;;;-4.60;94.70;;;;;;5053752;28;20096;-76
2024/01/09 08:03:44;;;;;;;16.95;9.63;;;-4.60;94.90;;;;;;5059578;28;20025;-77
2024/01/09 08:06:23;;;;;;;19.95;9.73;;;-4.50;94.40;;;;;;5044911;28;20025;-76
2024/01/09 08:08:51;;;;;;;19.55;9.57;;;-4.50;94.30;;;;;;5056578;28;20021;-76
2024/01/09 08:11:20;;;;;;;22.20;10.40;;;-4.60;94.30;;;;;;5046939;28;20025;-74
2024/01/09 08:13:49;;;;;;;18.52;9.88;;;-4.50;94.30;;;;;;5062801;28;20040;-77
2024/01/09 08:16:17;;;;;;;21.33;9.95;;;-4.50;94.50;;;;;;5046682;28;20051;-74
2024/01/09 08:18:46;;;;;;;18.67;9.95;;;-4.50;94.00;;;;;;5062325;28;20043;-75
2024/01/09 08:21:13;;;;;;;21.65;10.20;;;-4.50;94.10;;;;;;5046859;28;20033;-75
2024/01/09 08:23:39;;;;;;;21.10;9.93;;;-4.50;94.10;;;;;;5040042;28;20079;-79
2024/01/09 08:26:07;;;;;;;16.95;8.93;;;-4.40;94.10;;;;;;5046921;28;20025;-77
2024/01/09 08:28:33;;;;;;;19.02;9.02;;;-4.40;94.00;;;;;;5064368;28;20025;-76
2024/01/09 08:31:02;;;;;;;21.35;10.13;;;-4.40;94.10;;;;;;5047523;28;20049;-75
2024/01/09 08:33:28;;;;;;;20.05;10.18;;;-4.30;94.00;;;;;;5043190;28;20228;-75
2024/01/09 08:35:55;;;;;;;18.23;9.07;;;-4.30;93.80;;;;;;5027040;28;20040;-78
2024/01/09 08:38:22;;;;;;;20.50;9.82;;;-4.20;93.80;;;;;;5044086;28;20063;-75
2024/01/09 08:40:53;;;;;;;22.50;10.85;;;-4.10;93.70;;;;;;5050768;28;20684;-78
2024/01/09 08:43:19;;;;;;;23.85;9.55;;;-4.10;94.00;;;;;;5046399;28;20115;-75
2024/01/09 08:45:46;;;;;;;19.17;9.27;;;-4.00;93.60;;;;;;5045339;28;20059;-75
2024/01/09 08:48:11;;;;;;;18.67;10.18;;;-3.80;93.30;;;;;;5046076;28;20178;-73
2024/01/09 08:50:37;;;;;;;19.15;9.88;;;-3.80;93.00;;;;;;5045700;28;20033;-76
2024/01/09 08:53:03;;;;;;;23.05;10.40;;;-3.70;92.70;;;;;;5064138;28;20303;-76
2024/01/09 08:55:28;;;;;;;18.65;9.27;;;-3.60;92.60;;;;;;5063082;28;20172;-74
2024/01/09 08:57:54;;;;;;;21.23;10.52;;;-3.50;92.80;;;;;;5058520;28;20021;-75
2024/01/09 09:00:29;;;;;;;20.98;10.35;;;-3.40;92.40;;;;;;5045109;28;20052;-75
2024/01/09 09:02:59;;;;;;;19.40;9.98;;;-3.40;92.30;;;;;;5045617;28;20112;-75
2024/01/09 09:05:24;;;;;;;18.88;10.07;;;-3.20;92.90;;;;;;5063424;28;20071;-75
2024/01/09 09:07:50;;;;;;;21.25;10.20;;;-3.10;92.20;;;;;;5062883;28;20024;-77
2024/01/09 09:10:25;;;;;;;19.55;10.23;;;-3.00;91.90;;;;;;5045483;28;20025;-77
2024/01/09 09:12:51;;;;;;;22.55;10.18;;;-2.90;92.10;;;;;;5028165;28;20106;-76
2024/01/09 09:15:17;;;;;;;20.30;10.15;;;-2.80;91.90;;;;;;5063070;28;20258;-76
2024/01/09 09:17:48;;;;;;;19.17;9.82;;;-2.70;91.90;;;;;;5058926;28;20039;-79
2024/01/09 09:20:16;;;;;;;19.25;9.45;;;-2.70;91.30;;;;;;5064810;28;20040;-77
2024/01/09 09:22:42;;;;;;;18.65;10.32;;;-2.70;91.00;;;;;;5063270;28;20028;-79
2024/01/09 09:25:08;;;;;;;18.30;10.07;;;-2.60;91.00;;;;;;5063021;28;20033;-77
2024/01/09 09:27:37;;;;;;;22.42;11.07;;;-2.70;90.70;;;;;;5029568;28;20036;-76
2024/01/09 09:30:04;;;;;;;23.13;10.65;;;-2.70;91.20;;;;;;5053676;28;20097;-74
2024/01/09 09:32:33;;;;;;;19.83;10.30;;;-2.60;91.50;;;;;;5012853;28;20024;-76
2024/01/09 09:35:05;;;;;;;22.48;9.93;;;-2.50;91.50;;;;;;5061012;28;20105;-76
2024/01/09 09:37:31;;;;;;;19.95;9.55;;;-2.50;89.50;;;;;;5046973;28;20032;-77
2024/01/09 09:39:57;;;;;;;20.45;11.07;;;-2.50;90.60;;;;;;5027446;28;20029;-80
2024/01/09 09:42:31;;;;;;;18.77;9.27;;;-2.50;90.00;;;;;;5058598;28;20036;-77
2024/01/09 09:45:14;;;;;;;18.88;9.60;;;-2.50;88.60;;;;;;5045282;28;20095;-77
2024/01/09 09:48:07;;;;;;;17.05;9.45;;;-2.50;88.90;;;;;;5057251;28;20348;-76
2024/01/09 09:51:00;;;;;;;20.25;9.93;;;-2.40;89.10;;;;;;5062924;28;20033;-77
2024/01/09 09:53:36;;;;;;;19.67;10.20;;;-2.40;88.70;;;;;;5059699;28;20064;-78
2024/01/09 09:56:04;;;;;;;18.55;9.13;;;-2.40;87.60;;;;;;5062908;28;20319;-77
2024/01/09 09:58:31;;;;;;;20.35;9.77;;;-2.30;87.80;;;;;;5061072;28;20024;-76
2024/01/09 10:00:59;;;;;;;19.83;9.93;;;-2.30;88.30;;;;;;5063028;28;20307;-77
2024/01/09 10:03:33;;;;;;;18.40;9.60;;;-2.20;88.60;;;;;;5063101;28;20335;-77
2024/01/09 10:06:08;;;;;;;18.67;10.32;;;-2.10;88.40;;;;;;5039631;28;20025;-77
2024/01/09 10:08:34;;;;;;;20.02;9.32;;;-2.10;87.10;;;;;;5044824;28;20095;-77
2024/01/09 10:11:04;;;;;;;21.92;10.52;;;-2.10;86.30;;;;;;5040880;28;20047;-76
2024/01/09 10:13:35;;;;;;;20.33;9.80;;;-2.10;86.90;;;;;;5040670;28;20017;-76
2024/01/09 10:16:11;;;;;;;21.33;9.93;;;-2.10;88.10;;;;;;5004182;28;20347;-76
2024/01/09 10:18:45;;;;;;;17.92;8.93;;;-1.90;87.20;;;;;;5024864;28;20029;-76
2024/01/09 10:21:11;;;;;;;18.10;9.32;;;-1.90;86.10;;;;;;5041731;28;20036;-76
2024/01/09 10:23:39;;;;;;;18.25;9.88;;;-1.90;86.60;;;;;;5046136;28;20104;-76
2024/01/09 10:26:10;;;;;;;17.38;9.82;;;-1.80;86.50;;;;;;5025311;28;20135;-77
2024/01/09 10:28:39;;;;;;;20.98;10.07;;;-1.80;85.20;;;;;;5024719;28;20044;-78
2024/01/09 10:31:14;;;;;;;17.80;9.73;;;-1.70;87.10;;;;;;5039425;28;20049;-77
2024/01/09 10:33:43;;;;;;;20.08;9.30;;;-1.60;84.70;;;;;;5044256;28;20041;-77
2024/01/09 10:36:11;;;;;;;19.40;9.75;;;-1.60;84.10;;;;;;5062091;28;20268;-77
2024/01/09 10:38:37;;;;;;;18.92;9.50;;;-1.50;84.70;;;;;;5043587;28;20063;-78
2024/01/09 10:41:21;;;;;;;19.38;9.43;;;-1.40;88.10;;;;;;5051678;28;20300;-78
2024/01/09 10:43:49;;;;;;;22.52;10.02;;;-1.20;84.30;;;;;;5041685;28;20029;-76
2024/01/09 10:46:15;;;;;;;21.25;10.18;;;-1.10;83.00;;;;;;5055308;28;20106;-76
2024/01/09 10:48:46;;;;;;;20.40;9.77;;;-1.00;84.00;;;;;;5044341;28;20045;-76
2024/01/09 10:51:18;;;;;;;17.23;8.23;;;-0.90;82.10;;;;;;5065374;28;20032;-77
2024/01/09 10:53:47;;;;;;;16.95;8.80;;;-0.80;82.40;;;;;;5047894;28;20087;-76
2024/01/09 10:56:17;;;;;;;20.52;9.60;;;-0.70;81.90;;;;;;5066241;28;20045;-78
2024/01/09 10:58:46;;;;;;;17.77;9.30;;;-0.50;84.60;;;;;;5031388;28;20037;-76
2024/01/09 11:01:13;;;;;;;17.65;9.32;;;-0.20;79.70;;;;;;5048436;28;20040;-76
2024/01/09 11:03:39;;;;;;;18.47;8.53;;;0.10;81.40;;;;;;5056797;28;20025;-73
2024/01/09 11:06:07;;;;;;;17.67;9.88;;;0.30;78.20;;;;;;5053566;28;20029;-74
2024/01/09 11:08:36;;;;;;;18.45;8.32;;;0.50;77.00;;;;;;5045196;28;20193;-77
2024/01/09 11:11:07;;;;;;;19.30;8.93;;;0.70;75.60;;;;;;5063961;28;20044;-76
2024/01/09 11:13:37;;;;;;;18.40;8.82;;;1.00;76.50;;;;;;5028771;28;20067;-74
2024/01/09 11:16:06;;;;;;;17.15;9.55;;;1.30;76.10;;;;;;5065284;28;20040;-75
2024/01/09 11:18:33;;;;;;;18.05;9.57;;;1.60;73.90;;;;;;5055099;28;20041;-74
2024/01/09 11:21:03;;;;;;;18.58;8.80;;;2.00;75.10;;;;;;5045084;28;20017;-76
2024/01/09 11:23:57;;;;;;;14.73;8.80;;;2.40;71.40;;;;;;5045019;28;20052;-76
2024/01/09 11:26:27;;;;;;;15.05;8.85;;;2.60;71.30;;;;;;5042615;28;20044;-75
2024/01/09 11:28:53;;;;;;;15.43;8.77;;;2.70;70.90;;;;;;5046524;28;20037;-74
2024/01/09 11:31:20;;;;;;;15.90;8.68;;;3.10;70.70;;;;;;5064144;28;20037;-73
2024/01/09 11:33:51;;;;;;;14.90;8.60;;;3.40;68.00;;;;;;5065160;28;20408;-76
2024/01/09 11:36:37;;;;;;;15.52;8.93;;;3.60;67.60;;;;;;5032492;28;20216;-75
2024/01/09 11:39:04;;;;;;;14.80;9.07;;;3.90;68.10;;;;;;5045190;28;20087;-76
2024/01/09 11:41:32;;;;;;;15.30;8.88;;;4.60;66.50;;;;;;5045101;28;20029;-75
2024/01/09 11:44:05;;;;;;;15.20;8.73;;;5.00;65.50;;;;;;5045370;28;20067;-75
2024/01/09 11:46:35;;;;;;;12.55;8.02;;;5.20;63.30;;;;;;5059285;28;20035;-74
2024/01/09 11:49:01;;;;;;;15.77;8.63;;;5.00;63.60;;;;;;5063562;28;20116;-76
2024/01/09 11:51:33;;;;;;;13.45;8.23;;;5.40;62.20;;;;;;5065056;28;20025;-73
2024/01/09 11:54:02;;;;;;;13.68;8.40;;;5.40;65.20;;;;;;5065263;28;20032;-75
2024/01/09 11:56:34;;;;;;;13.13;7.90;;;6.00;64.50;;;;;;5047212;28;20333;-76
2024/01/09 11:59:00;;;;;;;14.98;8.23;;;6.60;61.70;;;;;;5063745;28;20100;-75
2024/01/09 12:01:26;;;;;;;12.95;7.85;;;6.80;61.40;;;;;;5064201;28;20033;-77
2024/01/09 12:03:59;;;;;;;14.35;8.60;;;7.50;61.00;;;;;;5062165;28;20100;-74
2024/01/09 12:06:28;;;;;;;13.32;8.88;;;8.20;59.30;;;;;;5047032;28;20369;-78
2024/01/09 12:08:53;;;;;;;12.82;7.97;;;8.40;60.10;;;;;;5043893;28;20032;-75
2024/01/09 12:11:20;;;;;;;12.77;7.85;;;8.60;57.20;;;;;;5044746;28;20021;-77
2024/01/09 12:14:15;;;;;;;13.02;8.15;;;8.50;56.80;;;;;;5044313;28;20332;-79
2024/01/09 12:16:43;;;;;;;14.02;8.18;;;8.80;56.70;;;;;;5031243;28;20052;-77
2024/01/09 12:19:13;;;;;;;;;;;9.40;55.90;;;;;;5048309;28;20063;-77
2024/01/09 12:21:39;;;;;;;12.00;7.88;;;9.80;53.00;;;;;;5024509;28;19944;-78
2024/01/09 12:24:11;;;;;;;13.57;8.13;;;9.40;53.40;;;;;;5043130;28;20040;-75
2024/01/09 12:26:40;;;;;;;14.25;8.50;;;9.40;54.30;;;;;;5057916;28;20048;-76
2024/01/09 12:29:07;;;;;;;12.68;7.97;;;9.00;52.90;;;;;;5028000;28;20151;-74
2024/01/09 12:31:36;;;;;;;16.88;9.02;;;8.50;53.50;;;;;;5045874;28;20021;-75
2024/01/09 12:34:03;;;;;;;12.48;8.00;;;8.30;54.30;;;;;;5060154;28;20429;-77
2024/01/09 12:36:31;;;;;;;12.45;7.60;;;8.20;56.00;;;;;;5059163;28;20033;-76